createdAt,value
2018-12-26T00:00:29.640Z,87.70
2018-12-26T00:01:02.085Z,87.70
2018-12-26T00:01:34.583Z,87.80
2018-12-26T00:02:07.013Z,88.00
2018-12-26T00:02:39.462Z,88.80
2018-12-26T00:03:12.220Z,88.10
2018-12-26T00:03:44.716Z,87.90
2018-12-26T00:04:17.185Z,88.10
2018-12-26T00:04:50.007Z,88.40
2018-12-26T00:05:22.599Z,88.30
2018-12-26T00:05:55.030Z,88.20
2018-12-26T00:06:27.513Z,88.40
2018-12-26T00:07:00.318Z,88.70
2018-12-26T00:07:32.777Z,88.80
2018-12-26T00:08:05.353Z,88.80
2018-12-26T00:08:37.807Z,88.70
2018-12-26T00:09:10.672Z,88.70
2018-12-26T00:09:43.122Z,88.70
2018-12-26T00:10:16.301Z,88.60
2018-12-26T00:10:48.774Z,88.60
2018-12-26T00:11:21.233Z,88.40
2018-12-26T00:11:54.079Z,88.40
2018-12-26T00:12:26.529Z,88.20
2018-12-26T00:12:59.001Z,88.70
2018-12-26T00:13:31.471Z,88.80
2018-12-26T00:14:03.948Z,89.40
2018-12-26T00:14:36.806Z,88.60
2018-12-26T00:15:09.577Z,88.20
2018-12-26T00:15:42.043Z,88.20
2018-12-26T00:16:14.503Z,88.50
2018-12-26T00:16:47.099Z,88.20
2018-12-26T00:17:19.563Z,88.40
2018-12-26T00:17:52.017Z,88.50
2018-12-26T00:18:24.592Z,88.60
2018-12-26T00:18:57.039Z,88.30
2018-12-26T00:19:29.848Z,88.40
2018-12-26T00:20:02.409Z,88.30
2018-12-26T00:20:35.301Z,88.40
2018-12-26T00:21:07.767Z,88.40
2018-12-26T00:21:40.235Z,88.50
2018-12-26T00:22:12.998Z,88.70
2018-12-26T00:22:45.533Z,88.70
2018-12-26T00:23:18.001Z,88.60
2018-12-26T00:23:50.852Z,88.70
2018-12-26T00:24:23.670Z,88.90
2018-12-26T00:24:56.160Z,88.80
2018-12-26T00:25:28.999Z,89.00
2018-12-26T00:26:01.966Z,89.00
2018-12-26T00:26:34.518Z,88.90
2018-12-26T00:27:07.007Z,88.80
2018-12-26T00:27:39.489Z,88.80
2018-12-26T00:28:11.945Z,88.90
2018-12-26T00:28:44.407Z,88.80
2018-12-26T00:29:16.866Z,88.80
2018-12-26T00:29:49.598Z,89.00
2018-12-26T00:30:22.045Z,89.30
2018-12-26T00:30:54.638Z,89.20
2018-12-26T00:31:27.103Z,89.10
2018-12-26T00:31:59.962Z,89.10
2018-12-26T00:32:36.000Z,89.40
2018-12-26T00:33:08.442Z,89.70
2018-12-26T00:33:41.225Z,89.50
2018-12-26T00:34:14.062Z,89.80
2018-12-26T00:34:46.647Z,90.00
2018-12-26T00:35:19.394Z,89.90
2018-12-26T00:35:51.882Z,89.50
2018-12-26T00:36:24.747Z,89.30
2018-12-26T00:36:57.205Z,89.20
2018-12-26T00:37:29.999Z,89.20
2018-12-26T00:38:02.766Z,89.40
2018-12-26T00:38:35.241Z,89.50
2018-12-26T00:39:07.707Z,89.30
2018-12-26T00:39:40.499Z,89.00
2018-12-26T00:40:13.255Z,88.90
2018-12-26T00:40:45.721Z,89.10
2018-12-26T00:41:18.185Z,89.10
2018-12-26T00:41:50.683Z,89.30
2018-12-26T00:42:23.176Z,89.40
2018-12-26T00:42:55.652Z,89.30
2018-12-26T00:43:28.389Z,89.30
2018-12-26T00:44:00.856Z,89.30
2018-12-26T00:44:33.309Z,89.30
2018-12-26T00:45:06.818Z,89.30
2018-12-26T00:45:39.280Z,89.30
2018-12-26T00:46:12.026Z,89.30
2018-12-26T00:46:44.898Z,89.40
2018-12-26T00:47:17.401Z,89.70
2018-12-26T00:47:49.861Z,89.80
2018-12-26T00:48:22.675Z,89.70
2018-12-26T00:48:55.486Z,89.70
2018-12-26T00:49:27.941Z,90.00
2018-12-26T00:50:00.393Z,89.60
2018-12-26T00:50:33.261Z,89.50
2018-12-26T00:51:05.719Z,89.70
2018-12-26T00:51:38.535Z,89.50
2018-12-26T00:52:10.989Z,89.70
2018-12-26T00:52:43.490Z,89.50
2018-12-26T00:53:15.959Z,89.30
2018-12-26T00:53:48.419Z,89.30
2018-12-26T00:54:21.276Z,89.10
2018-12-26T00:54:53.743Z,88.80
2018-12-26T00:55:26.519Z,89.00
2018-12-26T00:55:58.986Z,89.10
2018-12-26T00:56:31.429Z,89.40
2018-12-26T00:57:03.892Z,89.70
2018-12-26T00:57:36.621Z,89.60
2018-12-26T00:58:09.503Z,89.50
2018-12-26T00:58:42.399Z,89.50
2018-12-26T00:59:14.919Z,89.40
2018-12-26T00:59:47.399Z,89.40
2018-12-26T01:00:19.847Z,89.30
2018-12-26T01:00:52.751Z,89.10
2018-12-26T01:01:25.227Z,89.30
2018-12-26T01:01:57.689Z,89.60
2018-12-26T01:02:36.285Z,89.90
2018-12-26T01:03:09.877Z,89.80
2018-12-26T01:03:42.740Z,89.70
2018-12-26T01:04:15.194Z,90.00
2018-12-26T01:04:47.655Z,90.10
2018-12-26T01:05:20.475Z,90.00
2018-12-26T01:05:53.214Z,90.00
2018-12-26T01:06:37.241Z,89.70
2018-12-26T01:07:09.704Z,89.80
2018-12-26T01:07:42.469Z,89.80
2018-12-26T01:08:50.933Z,90.00
2018-12-26T01:09:23.376Z,89.70
2018-12-26T01:09:55.844Z,89.30
2018-12-26T01:10:28.307Z,89.50
2018-12-26T01:11:01.135Z,89.70
2018-12-26T01:11:33.599Z,89.90
2018-12-26T01:12:06.045Z,89.50
2018-12-26T01:12:38.875Z,89.10
2018-12-26T01:13:11.330Z,89.40
2018-12-26T01:13:44.173Z,89.80
2018-12-26T01:14:16.674Z,89.30
2018-12-26T01:14:49.125Z,89.30
2018-12-26T01:15:21.581Z,89.50
2018-12-26T01:15:54.457Z,89.50
2018-12-26T01:16:26.905Z,89.30
2018-12-26T01:16:59.369Z,89.50
2018-12-26T01:17:31.847Z,89.20
2018-12-26T01:18:04.302Z,89.30
2018-12-26T01:18:36.771Z,89.40
2018-12-26T01:19:09.661Z,89.30
2018-12-26T01:19:42.111Z,89.50
2018-12-26T01:20:14.909Z,89.60
2018-12-26T01:20:47.346Z,89.60
2018-12-26T01:21:20.143Z,89.40
2018-12-26T01:21:52.597Z,88.90
2018-12-26T01:22:25.453Z,88.80
2018-12-26T01:22:57.922Z,88.90
2018-12-26T01:23:30.383Z,89.20
2018-12-26T01:24:02.825Z,89.20
2018-12-26T01:24:35.671Z,88.90
2018-12-26T01:25:08.188Z,89.00
2018-12-26T01:25:40.655Z,88.80
2018-12-26T01:26:19.127Z,89.00
2018-12-26T01:26:47.722Z,88.90
2018-12-26T01:27:20.483Z,89.10
2018-12-26T01:27:52.947Z,89.00
2018-12-26T01:28:25.412Z,89.10
2018-12-26T01:28:57.860Z,89.20
2018-12-26T01:29:55.913Z,89.30
2018-12-26T01:30:55.270Z,89.30
2018-12-26T01:31:27.680Z,89.50
2018-12-26T01:32:00.156Z,89.20
2018-12-26T01:32:33.346Z,89.30
2018-12-26T01:33:05.801Z,89.40
2018-12-26T01:33:38.256Z,88.90
2018-12-26T01:34:10.715Z,88.60
2018-12-26T01:34:43.174Z,88.20
2018-12-26T01:35:15.631Z,88.20
2018-12-26T01:35:48.127Z,88.40
2018-12-26T01:36:20.590Z,88.50
2018-12-26T01:36:53.042Z,88.60
2018-12-26T01:37:25.503Z,89.40
2018-12-26T01:37:58.337Z,89.10
2018-12-26T01:38:30.791Z,88.90
2018-12-26T01:39:05.479Z,88.90
2018-12-26T01:39:38.227Z,88.80
2018-12-26T01:40:10.945Z,88.80
2018-12-26T01:40:43.400Z,88.80
2018-12-26T01:41:15.894Z,88.80
2018-12-26T01:41:48.371Z,88.60
2018-12-26T01:42:20.809Z,88.70
2018-12-26T01:42:53.270Z,88.80
2018-12-26T01:43:25.757Z,89.00
2018-12-26T01:43:58.497Z,88.60
2018-12-26T01:44:30.956Z,88.90
2018-12-26T01:45:03.460Z,88.90
2018-12-26T01:45:35.901Z,88.90
2018-12-26T01:46:08.364Z,88.90
2018-12-26T01:46:41.114Z,89.00
2018-12-26T01:47:13.572Z,88.50
2018-12-26T01:47:46.141Z,88.50
2018-12-26T01:48:18.607Z,88.70
2018-12-26T01:48:51.058Z,88.70
2018-12-26T01:49:23.906Z,89.00
2018-12-26T01:49:56.357Z,88.90
2018-12-26T01:50:29.148Z,89.00
2018-12-26T01:51:01.607Z,89.00
2018-12-26T01:51:34.743Z,88.80
2018-12-26T01:52:07.217Z,88.00
2018-12-26T01:52:39.687Z,88.40
2018-12-26T01:53:12.151Z,88.50
2018-12-26T01:53:44.969Z,88.80
2018-12-26T01:54:17.426Z,88.40
2018-12-26T01:54:49.875Z,88.50
2018-12-26T01:55:22.639Z,88.60
2018-12-26T01:55:55.103Z,88.50
2018-12-26T01:56:28.136Z,88.30
2018-12-26T01:57:00.805Z,88.10
2018-12-26T01:57:33.663Z,88.30
2018-12-26T01:58:06.858Z,88.30
2018-12-26T01:58:39.297Z,88.60
2018-12-26T01:59:12.057Z,88.20
2018-12-26T01:59:44.520Z,88.20
2018-12-26T02:00:16.983Z,88.50
2018-12-26T02:00:49.447Z,88.30
2018-12-26T02:01:21.921Z,87.90
2018-12-26T02:01:54.382Z,88.10
2018-12-26T02:02:26.842Z,88.20
2018-12-26T02:02:59.333Z,88.30
2018-12-26T02:03:32.177Z,88.30
2018-12-26T02:04:04.645Z,88.60
2018-12-26T02:04:37.112Z,88.80
2018-12-26T02:05:09.564Z,88.40
2018-12-26T02:05:42.017Z,88.50
2018-12-26T02:06:14.479Z,88.50
2018-12-26T02:06:46.934Z,88.50
2018-12-26T02:07:19.816Z,88.40
2018-12-26T02:07:52.282Z,88.30
2018-12-26T02:08:24.776Z,88.50
2018-12-26T02:08:57.602Z,88.60
2018-12-26T02:09:30.191Z,88.40
2018-12-26T02:10:02.669Z,88.50
2018-12-26T02:10:35.146Z,88.70
2018-12-26T02:11:07.637Z,89.00
2018-12-26T02:11:40.092Z,88.60
2018-12-26T02:12:12.546Z,88.60
2018-12-26T02:12:44.993Z,88.40
2018-12-26T02:13:17.459Z,88.70
2018-12-26T02:13:49.959Z,88.70
2018-12-26T02:14:22.750Z,88.60
2018-12-26T02:14:55.582Z,89.20
2018-12-26T02:15:28.079Z,88.40
2018-12-26T02:16:00.512Z,88.00
2018-12-26T02:16:32.974Z,88.20
2018-12-26T02:17:05.841Z,88.40
2018-12-26T02:17:38.309Z,88.30
2018-12-26T02:18:11.203Z,88.50
2018-12-26T02:18:43.769Z,88.50
2018-12-26T02:19:16.257Z,88.60
2018-12-26T02:19:48.709Z,88.80
2018-12-26T02:20:21.157Z,89.00
2018-12-26T02:20:53.609Z,89.70
2018-12-26T02:21:26.070Z,88.90
2018-12-26T02:21:58.521Z,88.80
2018-12-26T02:22:31.743Z,88.90
2018-12-26T02:23:04.199Z,88.50
2018-12-26T02:23:36.658Z,88.50
2018-12-26T02:24:09.120Z,88.60
2018-12-26T02:24:41.926Z,88.50
2018-12-26T02:25:14.386Z,88.60
2018-12-26T02:25:46.825Z,88.60
2018-12-26T02:26:19.283Z,88.80
2018-12-26T02:26:51.737Z,88.90
2018-12-26T02:27:24.556Z,89.40
2018-12-26T02:27:57.014Z,89.00
2018-12-26T02:28:29.465Z,89.10
2018-12-26T02:29:01.922Z,89.00
2018-12-26T02:29:34.400Z,88.70
2018-12-26T02:30:07.256Z,88.60
2018-12-26T02:30:39.708Z,88.70
2018-12-26T02:31:12.159Z,88.70
2018-12-26T02:31:44.618Z,88.90
2018-12-26T02:32:17.419Z,89.20
2018-12-26T02:32:50.273Z,89.30
2018-12-26T02:33:23.106Z,89.30
2018-12-26T02:33:55.599Z,89.00
2018-12-26T02:34:28.072Z,88.90
2018-12-26T02:35:00.850Z,88.90
2018-12-26T02:35:33.327Z,88.80
2018-12-26T02:36:05.783Z,88.80
2018-12-26T02:36:38.380Z,88.90
2018-12-26T02:37:11.219Z,89.00
2018-12-26T02:37:43.687Z,89.10
2018-12-26T02:38:16.552Z,89.00
2018-12-26T02:38:49.298Z,89.20
2018-12-26T02:39:21.761Z,89.00
2018-12-26T02:39:54.216Z,89.20
2018-12-26T02:40:27.297Z,89.00
2018-12-26T02:41:00.156Z,89.20
2018-12-26T02:41:33.135Z,89.30
2018-12-26T02:42:05.609Z,89.40
2018-12-26T02:42:38.053Z,89.20
2018-12-26T02:43:10.523Z,89.20
2018-12-26T02:43:42.982Z,89.60
2018-12-26T02:44:15.470Z,89.40
2018-12-26T02:44:47.939Z,89.50
2018-12-26T02:45:20.510Z,89.60
2018-12-26T02:45:52.969Z,89.90
2018-12-26T02:46:25.467Z,90.00
2018-12-26T02:46:58.564Z,89.90
2018-12-26T02:47:31.030Z,89.60
2018-12-26T02:48:03.481Z,89.80
2018-12-26T02:48:35.965Z,90.00
2018-12-26T02:49:08.879Z,90.00
2018-12-26T02:49:41.608Z,90.10
2018-12-26T02:50:14.051Z,90.20
2018-12-26T02:50:46.520Z,89.80
2018-12-26T02:51:18.973Z,89.80
2018-12-26T02:51:51.481Z,89.80
2018-12-26T02:52:24.350Z,90.00
2018-12-26T02:52:56.823Z,90.00
2018-12-26T02:53:29.373Z,89.90
2018-12-26T02:54:01.842Z,89.60
2018-12-26T02:54:34.602Z,89.30
2018-12-26T02:55:07.472Z,89.90
2018-12-26T02:55:40.098Z,89.50
2018-12-26T02:56:12.691Z,89.70
2018-12-26T02:56:48.690Z,89.90
2018-12-26T02:57:19.962Z,90.00
2018-12-26T02:57:52.886Z,89.90
2018-12-26T02:58:25.359Z,89.80
2018-12-26T02:58:57.812Z,89.90
2018-12-26T02:59:30.265Z,89.70
2018-12-26T03:00:03.267Z,89.70
2018-12-26T03:00:36.119Z,89.80
2018-12-26T03:01:08.585Z,89.70
2018-12-26T03:01:41.350Z,89.90
2018-12-26T03:02:14.095Z,90.00
2018-12-26T03:02:46.974Z,90.10
2018-12-26T03:03:19.422Z,90.00
2018-12-26T03:03:51.865Z,90.00
2018-12-26T03:04:24.329Z,89.70
2018-12-26T03:04:56.787Z,89.50
2018-12-26T03:05:29.519Z,89.60
2018-12-26T03:06:01.984Z,89.40
2018-12-26T03:06:34.441Z,89.50
2018-12-26T03:07:06.901Z,89.60
2018-12-26T03:07:39.650Z,89.70
2018-12-26T03:08:12.148Z,89.50
2018-12-26T03:08:44.597Z,89.60
2018-12-26T03:09:17.054Z,89.60
2018-12-26T03:09:49.520Z,89.80
2018-12-26T03:10:21.965Z,90.00
2018-12-26T03:10:54.406Z,90.00
2018-12-26T03:11:26.872Z,90.00
2018-12-26T03:11:59.351Z,90.00
2018-12-26T03:12:31.794Z,90.00
2018-12-26T03:13:04.403Z,89.80
2018-12-26T03:13:36.992Z,89.80
2018-12-26T03:14:09.556Z,90.00
2018-12-26T03:14:41.996Z,90.00
2018-12-26T03:15:14.458Z,90.10
2018-12-26T03:15:46.911Z,90.20
2018-12-26T03:16:19.720Z,90.10
2018-12-26T03:16:52.539Z,90.00
2018-12-26T03:17:25.003Z,90.00
2018-12-26T03:17:57.792Z,90.00
2018-12-26T03:18:30.233Z,90.00
2018-12-26T03:19:02.733Z,89.90
2018-12-26T03:19:35.490Z,90.00
2018-12-26T03:20:07.945Z,90.00
2018-12-26T03:20:40.416Z,90.10
2018-12-26T03:21:13.227Z,90.20
2018-12-26T03:21:45.962Z,90.20
2018-12-26T03:22:18.420Z,90.20
2018-12-26T03:22:50.893Z,90.40
2018-12-26T03:23:23.735Z,90.40
2018-12-26T03:23:56.198Z,90.40
2018-12-26T03:24:29.006Z,90.40
2018-12-26T03:25:01.464Z,90.40
2018-12-26T03:25:34.318Z,90.50
2018-12-26T03:26:06.783Z,90.70
2018-12-26T03:26:39.236Z,90.30
2018-12-26T03:27:11.694Z,90.20
2018-12-26T03:27:44.796Z,90.30
2018-12-26T03:28:17.253Z,90.40
2018-12-26T03:28:49.699Z,90.50
2018-12-26T03:29:22.490Z,90.50
2018-12-26T03:29:54.985Z,90.50
2018-12-26T03:30:27.424Z,90.50
2018-12-26T03:30:59.887Z,90.60
2018-12-26T03:31:32.371Z,90.40
2018-12-26T03:32:04.823Z,90.30
2018-12-26T03:32:37.523Z,90.30
2018-12-26T03:33:10.064Z,90.40
2018-12-26T03:33:42.875Z,90.40
2018-12-26T03:34:15.615Z,90.50
2018-12-26T03:34:48.371Z,90.50
2018-12-26T03:35:20.859Z,90.50
2018-12-26T03:35:53.309Z,90.60
2018-12-26T03:36:25.757Z,90.80
2018-12-26T03:36:58.206Z,91.00
2018-12-26T03:37:30.671Z,90.60
2018-12-26T03:38:03.114Z,90.80
2018-12-26T03:38:35.562Z,90.90
2018-12-26T03:39:08.021Z,91.00
2018-12-26T03:39:40.827Z,91.00
2018-12-26T03:40:13.948Z,91.00
2018-12-26T03:40:46.725Z,90.90
2018-12-26T03:41:19.277Z,91.00
2018-12-26T03:41:52.114Z,90.90
2018-12-26T03:42:25.519Z,90.90
2018-12-26T03:42:58.635Z,91.00
2018-12-26T03:43:31.550Z,91.10
2018-12-26T03:44:04.375Z,91.00
2018-12-26T03:44:37.031Z,90.80
2018-12-26T03:45:09.486Z,90.90
2018-12-26T03:45:41.950Z,90.90
2018-12-26T03:46:14.820Z,90.90
2018-12-26T03:46:47.384Z,90.90
2018-12-26T03:47:20.893Z,90.80
2018-12-26T03:47:54.590Z,90.90
2018-12-26T03:48:28.027Z,91.00
2018-12-26T03:49:00.502Z,91.00
2018-12-26T03:49:32.978Z,91.00
2018-12-26T03:50:06.042Z,91.00
2018-12-26T03:50:38.501Z,91.00
2018-12-26T03:51:10.957Z,90.90
2018-12-26T03:51:43.459Z,90.90
2018-12-26T03:52:16.619Z,91.00
2018-12-26T03:52:49.071Z,91.00
2018-12-26T03:53:21.568Z,91.10
2018-12-26T03:53:54.039Z,90.80
2018-12-26T03:54:26.509Z,90.60
2018-12-26T03:54:59.264Z,90.80
2018-12-26T03:55:32.170Z,90.90
2018-12-26T03:56:04.644Z,91.00
2018-12-26T03:56:37.953Z,91.00
2018-12-26T03:57:10.439Z,91.20
2018-12-26T03:57:42.965Z,91.10
2018-12-26T03:58:15.372Z,91.10
2018-12-26T03:58:48.145Z,91.00
2018-12-26T03:59:20.727Z,90.90
2018-12-26T03:59:53.178Z,90.80
2018-12-26T04:00:25.969Z,91.00
2018-12-26T04:00:58.435Z,90.90
2018-12-26T04:01:30.894Z,90.90
2018-12-26T04:02:03.653Z,90.90
2018-12-26T04:02:36.414Z,91.00
2018-12-26T04:03:09.187Z,90.90
2018-12-26T04:03:41.639Z,91.00
2018-12-26T04:04:14.112Z,90.90
2018-12-26T04:04:46.907Z,90.60
2018-12-26T04:05:19.359Z,90.50
2018-12-26T04:05:51.831Z,90.70
2018-12-26T04:06:24.288Z,90.60
2018-12-26T04:06:56.742Z,90.50
2018-12-26T04:07:29.686Z,90.50
2018-12-26T04:08:02.270Z,90.40
2018-12-26T04:08:34.833Z,90.30
2018-12-26T04:09:07.809Z,90.40
2018-12-26T04:09:40.281Z,90.50
2018-12-26T04:10:13.024Z,90.60
2018-12-26T04:10:45.914Z,90.70
2018-12-26T04:11:18.569Z,90.70
2018-12-26T04:11:51.051Z,90.80
2018-12-26T04:12:23.522Z,90.90
2018-12-26T04:12:55.991Z,90.80
2018-12-26T04:13:28.867Z,90.70
2018-12-26T04:14:01.323Z,90.70
2018-12-26T04:14:33.788Z,90.80
2018-12-26T04:15:06.326Z,90.90
2018-12-26T04:15:39.397Z,90.60
2018-12-26T04:16:13.285Z,90.50
2018-12-26T04:16:46.011Z,90.40
2018-12-26T04:17:18.469Z,90.50
2018-12-26T04:17:50.939Z,90.10
2018-12-26T04:18:23.831Z,90.20
2018-12-26T04:18:56.699Z,90.10
2018-12-26T04:19:29.155Z,90.20
2018-12-26T04:20:02.501Z,90.20
2018-12-26T04:20:35.025Z,90.30
2018-12-26T04:21:18.936Z,90.40
2018-12-26T04:21:51.499Z,90.20
2018-12-26T04:22:23.948Z,90.00
2018-12-26T04:22:56.511Z,90.10
2018-12-26T04:23:29.086Z,90.10
2018-12-26T04:24:01.574Z,90.20
2018-12-26T04:24:34.431Z,90.10
2018-12-26T04:25:06.978Z,90.20
2018-12-26T04:25:39.848Z,90.10
2018-12-26T04:26:12.307Z,90.00
2018-12-26T04:26:44.776Z,90.00
2018-12-26T04:27:17.583Z,90.10
2018-12-26T04:27:50.426Z,90.20
2018-12-26T04:28:22.908Z,90.20
2018-12-26T04:28:55.663Z,90.30
2018-12-26T04:29:28.516Z,90.10
2018-12-26T04:30:00.974Z,90.30
2018-12-26T04:30:33.448Z,90.40
2018-12-26T04:31:05.902Z,90.40
2018-12-26T04:31:38.346Z,90.40
2018-12-26T04:32:10.800Z,90.40
2018-12-26T04:32:43.270Z,90.40
2018-12-26T04:33:16.165Z,90.70
2018-12-26T04:33:49.015Z,90.70
2018-12-26T04:34:21.464Z,90.60
2018-12-26T04:34:53.974Z,90.40
2018-12-26T04:35:26.797Z,90.30
2018-12-26T04:35:59.258Z,90.50
2018-12-26T04:36:32.021Z,90.40
2018-12-26T04:37:04.745Z,90.50
2018-12-26T04:37:37.214Z,90.50
2018-12-26T04:38:09.665Z,90.60
2018-12-26T04:38:42.114Z,90.60
2018-12-26T04:39:14.839Z,90.60
2018-12-26T04:39:47.288Z,90.70
2018-12-26T04:40:20.181Z,90.50
2018-12-26T04:40:52.630Z,90.50
2018-12-26T04:41:25.093Z,90.50
2018-12-26T04:41:57.559Z,90.50
2018-12-26T04:42:30.325Z,90.40
2018-12-26T04:43:03.154Z,90.40
2018-12-26T04:43:35.614Z,90.20
2018-12-26T04:44:08.073Z,90.20
2018-12-26T04:44:40.507Z,90.10
2018-12-26T04:45:13.407Z,90.10
2018-12-26T04:45:46.214Z,90.20
2018-12-26T04:46:18.669Z,90.20
2018-12-26T04:46:51.121Z,90.30
2018-12-26T04:47:23.722Z,90.40
2018-12-26T04:47:56.570Z,90.50
2018-12-26T04:48:29.146Z,90.40
2018-12-26T04:49:01.629Z,90.50
2018-12-26T04:49:34.069Z,90.40
2018-12-26T04:50:06.853Z,90.40
2018-12-26T04:50:39.301Z,90.60
2018-12-26T04:51:11.780Z,90.60
2018-12-26T04:51:44.236Z,90.40
2018-12-26T04:52:16.704Z,90.30
2018-12-26T04:52:49.175Z,90.10
2018-12-26T04:53:21.625Z,90.20
2018-12-26T04:53:55.170Z,90.30
2018-12-26T04:54:27.723Z,90.40
2018-12-26T04:55:00.265Z,90.40
2018-12-26T04:55:32.638Z,90.40
2018-12-26T04:56:05.103Z,90.40
2018-12-26T04:56:37.577Z,90.20
2018-12-26T04:57:10.037Z,90.30
2018-12-26T04:57:42.805Z,90.20
2018-12-26T04:58:15.628Z,90.00
2018-12-26T04:58:48.099Z,90.00
2018-12-26T04:59:20.870Z,90.00
2018-12-26T04:59:53.328Z,90.00
2018-12-26T05:00:25.773Z,89.90
2018-12-26T05:00:58.235Z,90.20
2018-12-26T05:01:30.679Z,90.20
2018-12-26T05:02:03.320Z,90.40
2018-12-26T05:02:35.796Z,90.20
2018-12-26T05:03:08.280Z,90.20
2018-12-26T05:03:40.725Z,90.30
2018-12-26T05:04:13.184Z,90.40
2018-12-26T05:04:45.636Z,90.30
2018-12-26T05:05:18.100Z,90.30
2018-12-26T05:05:50.871Z,90.50
2018-12-26T05:06:23.306Z,90.40
2018-12-26T05:06:55.763Z,90.30
2018-12-26T05:07:28.882Z,90.50
2018-12-26T05:08:01.337Z,90.40
2018-12-26T05:08:33.791Z,90.40
2018-12-26T05:09:07.189Z,90.50
2018-12-26T05:09:39.644Z,90.40
2018-12-26T05:10:12.113Z,90.50
2018-12-26T05:10:44.577Z,90.50
2018-12-26T05:11:17.482Z,90.40
2018-12-26T05:11:49.944Z,90.40
2018-12-26T05:12:22.414Z,90.50
2018-12-26T05:12:54.904Z,90.60
2018-12-26T05:13:27.351Z,90.60
2018-12-26T05:13:59.805Z,90.60
2018-12-26T05:14:32.381Z,90.60
2018-12-26T05:15:04.962Z,90.80
2018-12-26T05:15:37.413Z,90.90
2018-12-26T05:16:09.877Z,90.90
2018-12-26T05:16:42.949Z,90.90
2018-12-26T05:17:15.773Z,90.80
2018-12-26T05:17:48.820Z,90.70
2018-12-26T05:18:21.318Z,90.70
2018-12-26T05:18:53.908Z,90.80
2018-12-26T05:19:26.361Z,90.80
2018-12-26T05:19:58.831Z,90.60
2018-12-26T05:20:31.286Z,90.70
2018-12-26T05:21:03.835Z,90.90
2018-12-26T05:21:36.299Z,91.30
2018-12-26T05:22:09.078Z,91.00
2018-12-26T05:22:41.542Z,90.90
2018-12-26T05:23:14.297Z,90.90
2018-12-26T05:23:46.788Z,90.90
2018-12-26T05:24:19.247Z,91.00
2018-12-26T05:24:51.705Z,90.90
2018-12-26T05:25:24.174Z,90.90
2018-12-26T05:25:56.646Z,91.00
2018-12-26T05:26:29.103Z,90.90
2018-12-26T05:27:01.565Z,90.70
2018-12-26T05:27:34.614Z,90.70
2018-12-26T05:28:07.176Z,90.70
2018-12-26T05:28:39.640Z,90.70
2018-12-26T05:29:12.494Z,90.90
2018-12-26T05:29:44.949Z,91.00
2018-12-26T05:30:17.401Z,91.00
2018-12-26T05:30:50.291Z,91.10
2018-12-26T05:31:22.759Z,91.10
2018-12-26T05:31:55.334Z,91.20
2018-12-26T05:32:28.490Z,91.30
2018-12-26T05:33:00.949Z,91.20
2018-12-26T05:33:33.410Z,91.40
2018-12-26T05:34:05.876Z,91.10
2018-12-26T05:34:38.366Z,91.40
2018-12-26T05:35:10.959Z,91.00
2018-12-26T05:35:43.423Z,91.10
2018-12-26T05:36:15.901Z,91.20
2018-12-26T05:36:48.349Z,91.40
2018-12-26T05:37:20.809Z,91.40
2018-12-26T05:37:53.641Z,91.50
2018-12-26T05:38:26.086Z,91.60
2018-12-26T05:38:58.561Z,91.50
2018-12-26T05:39:31.018Z,91.40
2018-12-26T05:40:03.998Z,91.40
2018-12-26T05:40:36.730Z,91.30
2018-12-26T05:41:09.181Z,91.40
2018-12-26T05:41:41.647Z,91.50
2018-12-26T05:42:14.116Z,91.90
2018-12-26T05:42:46.884Z,91.60
2018-12-26T05:43:19.650Z,91.70
2018-12-26T05:43:52.105Z,91.80
2018-12-26T05:44:24.554Z,91.70
2018-12-26T05:44:57.347Z,91.70
2018-12-26T05:45:30.221Z,91.60
2018-12-26T05:46:02.683Z,91.70
2018-12-26T05:46:35.439Z,91.70
2018-12-26T05:47:07.900Z,91.70
2018-12-26T05:47:41.087Z,91.90
2018-12-26T05:48:13.835Z,91.60
2018-12-26T05:48:47.352Z,91.60
2018-12-26T05:49:20.426Z,91.70
2018-12-26T05:49:53.488Z,91.80
2018-12-26T05:50:25.939Z,92.00
2018-12-26T05:50:58.425Z,92.00
2018-12-26T05:51:30.888Z,92.00
2018-12-26T05:52:03.337Z,92.10
2018-12-26T05:52:35.905Z,92.10
2018-12-26T05:53:08.338Z,91.80
2018-12-26T05:53:41.190Z,91.90
2018-12-26T05:54:14.037Z,91.70
2018-12-26T05:54:46.501Z,91.90
2018-12-26T05:55:19.001Z,91.90
2018-12-26T05:55:51.511Z,92.00
2018-12-26T05:56:23.989Z,91.90
2018-12-26T05:56:56.763Z,91.90
2018-12-26T05:57:29.218Z,92.00
2018-12-26T05:58:01.666Z,92.00
2018-12-26T05:58:34.489Z,92.10
2018-12-26T05:59:06.955Z,92.00
2018-12-26T05:59:39.405Z,92.30
2018-12-26T06:00:12.150Z,92.20
2018-12-26T06:00:44.953Z,92.20
2018-12-26T06:01:17.411Z,92.10
2018-12-26T06:01:50.032Z,92.10
2018-12-26T06:02:22.468Z,92.20
2018-12-26T06:02:54.935Z,92.20
2018-12-26T06:03:27.841Z,92.30
2018-12-26T06:04:00.293Z,92.30
2018-12-26T06:04:33.114Z,92.20
2018-12-26T06:05:05.681Z,92.10
2018-12-26T06:05:38.146Z,92.10
2018-12-26T06:06:10.885Z,92.20
2018-12-26T06:06:43.341Z,92.30
2018-12-26T06:07:15.827Z,92.40
2018-12-26T06:07:48.284Z,92.30
2018-12-26T06:08:20.744Z,92.40
2018-12-26T06:08:53.221Z,92.40
2018-12-26T06:09:25.669Z,92.30
2018-12-26T06:09:58.135Z,92.40
2018-12-26T06:10:30.822Z,92.40
2018-12-26T06:11:03.265Z,92.60
2018-12-26T06:11:35.710Z,92.60
2018-12-26T06:12:08.464Z,92.70
2018-12-26T06:12:41.334Z,92.80
2018-12-26T06:13:13.786Z,92.60
2018-12-26T06:13:46.643Z,92.50
2018-12-26T06:14:19.438Z,92.60
2018-12-26T06:14:51.879Z,92.60
2018-12-26T06:15:24.339Z,92.70
2018-12-26T06:15:56.814Z,92.60
2018-12-26T06:16:29.709Z,92.70
2018-12-26T06:17:02.821Z,92.70
2018-12-26T06:17:35.311Z,92.70
2018-12-26T06:18:08.361Z,92.70
2018-12-26T06:18:41.139Z,92.80
2018-12-26T06:19:13.596Z,92.80
2018-12-26T06:19:46.041Z,93.00
2018-12-26T06:20:18.489Z,93.00
2018-12-26T06:20:50.955Z,93.00
2018-12-26T06:21:23.402Z,93.10
2018-12-26T06:21:56.161Z,93.10
2018-12-26T06:22:28.640Z,93.10
2018-12-26T06:23:01.099Z,93.20
2018-12-26T06:23:33.583Z,93.20
2018-12-26T06:24:06.393Z,93.20
2018-12-26T06:24:38.867Z,93.30
2018-12-26T06:25:11.406Z,93.40
2018-12-26T06:25:43.876Z,93.30
2018-12-26T06:26:16.646Z,93.40
2018-12-26T06:26:49.098Z,93.30
2018-12-26T06:27:21.857Z,93.50
2018-12-26T06:27:54.317Z,93.40
2018-12-26T06:28:26.770Z,93.50
2018-12-26T06:28:59.236Z,93.50
2018-12-26T06:29:32.012Z,93.60
2018-12-26T06:30:04.953Z,93.60
2018-12-26T06:30:37.416Z,93.70
2018-12-26T06:31:10.142Z,93.80
2018-12-26T06:31:42.891Z,93.90
2018-12-26T06:32:15.351Z,94.00
2018-12-26T06:32:48.245Z,94.10
2018-12-26T06:33:20.695Z,94.00
2018-12-26T06:33:53.154Z,94.10
2018-12-26T06:34:25.647Z,94.20
2018-12-26T06:34:58.097Z,94.30
2018-12-26T06:35:30.834Z,94.40
2018-12-26T06:36:03.285Z,94.40
2018-12-26T06:36:35.743Z,94.50
2018-12-26T06:37:08.189Z,94.60
2018-12-26T06:37:40.668Z,94.60
2018-12-26T06:38:13.109Z,94.80
2018-12-26T06:38:45.565Z,94.80
2018-12-26T06:39:18.017Z,94.80
2018-12-26T06:39:50.829Z,94.80
2018-12-26T06:40:23.301Z,94.90
2018-12-26T06:40:55.867Z,94.90
2018-12-26T06:41:28.933Z,95.00
2018-12-26T06:42:01.415Z,95.00
2018-12-26T06:42:33.873Z,95.10
2018-12-26T06:43:06.321Z,95.20
2018-12-26T06:43:38.787Z,95.10
2018-12-26T06:44:11.253Z,95.30
2018-12-26T06:44:43.742Z,95.50
2018-12-26T06:45:16.221Z,95.40
2018-12-26T06:45:49.025Z,95.30
2018-12-26T06:46:21.487Z,95.60
2018-12-26T06:46:53.955Z,95.30
2018-12-26T06:47:26.436Z,95.30
2018-12-26T06:47:58.878Z,95.30
2018-12-26T06:48:31.333Z,95.30
2018-12-26T06:49:03.807Z,95.40
2018-12-26T06:49:36.270Z,95.40
2018-12-26T06:50:08.725Z,95.40
2018-12-26T06:50:41.235Z,95.20
2018-12-26T06:51:13.673Z,95.10
2018-12-26T06:51:46.131Z,95.30
2018-12-26T06:52:18.595Z,95.00
2018-12-26T06:52:51.428Z,94.90
2018-12-26T06:53:23.894Z,95.00
2018-12-26T06:53:56.336Z,95.10
2018-12-26T06:54:28.803Z,95.20
2018-12-26T06:55:01.898Z,95.20
2018-12-26T06:55:34.358Z,95.40
2018-12-26T06:56:07.257Z,95.40
2018-12-26T06:56:40.081Z,95.40
2018-12-26T06:57:12.527Z,95.40
2018-12-26T06:57:45.264Z,95.40
2018-12-26T06:58:18.077Z,95.50
2018-12-26T06:58:50.555Z,95.60
2018-12-26T06:59:23.078Z,95.60
2018-12-26T06:59:55.879Z,95.70
2018-12-26T07:00:28.671Z,95.80
2018-12-26T07:01:01.135Z,95.60
2018-12-26T07:01:33.982Z,95.50
2018-12-26T07:02:06.746Z,95.50